createdAt,value
2017-05-18T00:00:02.255Z,822.46
2017-05-18T00:00:06.458Z,822.47
2017-05-18T00:00:10.772Z,822.47
2017-05-18T00:00:15.200Z,822.47
2017-05-18T00:00:19.518Z,822.45
2017-05-18T00:00:23.828Z,822.46
2017-05-18T00:00:28.252Z,822.44
2017-05-18T00:00:32.681Z,822.47
2017-05-18T00:00:37.119Z,822.48
2017-05-18T00:00:41.558Z,822.45
2017-05-18T00:00:45.985Z,822.42
2017-05-18T00:00:50.418Z,822.45
2017-05-18T00:00:54.856Z,822.46
2017-05-18T00:00:59.287Z,822.46
2017-05-18T00:01:03.982Z,822.46
2017-05-18T00:01:08.436Z,822.47
2017-05-18T00:01:12.751Z,822.46
2017-05-18T00:01:17.063Z,822.47
2017-05-18T00:01:21.384Z,822.44
2017-05-18T00:01:25.809Z,822.44
2017-05-18T00:01:30.116Z,822.44
2017-05-18T00:01:34.543Z,822.44
2017-05-18T00:01:39.035Z,822.45
2017-05-18T00:01:43.460Z,822.46
2017-05-18T00:01:47.890Z,822.47
2017-05-18T00:01:52.328Z,822.44
2017-05-18T00:01:56.755Z,822.48
2017-05-18T00:02:01.065Z,822.44
2017-05-18T00:02:05.376Z,822.46
2017-05-18T00:02:09.444Z,822.46
2017-05-18T00:02:13.647Z,822.4
2017-05-18T00:02:17.959Z,822.44
2017-05-18T00:02:22.383Z,822.45
2017-05-18T00:02:26.691Z,822.44
2017-05-18T00:02:31.133Z,822.43
2017-05-18T00:02:35.569Z,822.45
2017-05-18T00:02:40.001Z,822.47
2017-05-18T00:02:44.435Z,822.46
2017-05-18T00:02:48.874Z,822.45
2017-05-18T00:02:53.316Z,822.43
2017-05-18T00:02:57.750Z,822.38
2017-05-18T00:03:02.362Z,822.44
2017-05-18T00:03:06.811Z,822.43
2017-05-18T00:03:11.246Z,822.44
2017-05-18T00:03:15.554Z,822.42
2017-05-18T00:03:19.997Z,822.4
2017-05-18T00:03:24.478Z,822.4
2017-05-18T00:03:28.900Z,822.42
2017-05-18T00:03:33.348Z,822.43
2017-05-18T00:03:37.796Z,822.42
2017-05-18T00:03:42.221Z,822.46
2017-05-18T00:03:46.661Z,822.45
2017-05-18T00:03:50.979Z,822.42
2017-05-18T00:03:55.594Z,822.43
2017-05-18T00:04:00.087Z,822.42
2017-05-18T00:04:04.581Z,822.43
2017-05-18T00:04:08.774Z,822.45
2017-05-18T00:04:13.236Z,822.44
2017-05-18T00:04:17.662Z,822.4
2017-05-18T00:04:22.088Z,822.42
2017-05-18T00:04:26.518Z,822.43
2017-05-18T00:04:30.717Z,822.39
2017-05-18T00:04:35.206Z,822.4
2017-05-18T00:04:39.512Z,822.42
2017-05-18T00:04:43.939Z,822.42
2017-05-18T00:04:48.131Z,822.44
2017-05-18T00:04:52.599Z,822.44
2017-05-18T00:04:57.032Z,822.43
2017-05-18T00:05:01.354Z,822.42
2017-05-18T00:05:06.001Z,822.45
2017-05-18T00:05:10.428Z,822.43
2017-05-18T00:05:14.743Z,822.41
2017-05-18T00:05:19.053Z,822.41
2017-05-18T00:05:23.481Z,822.41
2017-05-18T00:05:27.914Z,822.44
2017-05-18T00:05:32.339Z,822.43
2017-05-18T00:05:36.774Z,822.38
2017-05-18T00:05:41.203Z,822.38
2017-05-18T00:05:45.527Z,822.39
2017-05-18T00:05:49.845Z,822.4
2017-05-18T00:05:54.274Z,822.37
2017-05-18T00:05:58.722Z,822.44
2017-05-18T00:06:03.400Z,822.48
2017-05-18T00:06:07.708Z,822.45
2017-05-18T00:06:12.139Z,822.45
2017-05-18T00:06:16.450Z,822.45
2017-05-18T00:06:20.883Z,822.45
2017-05-18T00:06:25.197Z,822.43
2017-05-18T00:06:29.634Z,822.45
2017-05-18T00:06:34.064Z,822.44
2017-05-18T00:06:38.493Z,822.45
2017-05-18T00:06:42.816Z,822.45
2017-05-18T00:06:47.240Z,822.4
2017-05-18T00:06:51.673Z,822.43
2017-05-18T00:06:56.147Z,822.39
2017-05-18T00:07:00.471Z,822.36
2017-05-18T00:07:04.669Z,822.44
2017-05-18T00:07:08.982Z,822.42
2017-05-18T00:07:13.412Z,822.41
2017-05-18T00:07:17.845Z,822.42
2017-05-18T00:07:22.278Z,822.39
2017-05-18T00:07:26.707Z,822.37
2017-05-18T00:07:31.140Z,822.31
2017-05-18T00:07:35.351Z,822.38
2017-05-18T00:07:39.789Z,822.33
2017-05-18T00:07:44.219Z,822.38
2017-05-18T00:07:48.657Z,822.39
2017-05-18T00:07:53.140Z,822.37
2017-05-18T00:07:57.568Z,822.38
2017-05-18T00:08:02.053Z,822.36
2017-05-18T00:08:06.247Z,822.37
2017-05-18T00:08:10.559Z,822.37
2017-05-18T00:08:14.994Z,822.35
2017-05-18T00:08:19.434Z,822.37
2017-05-18T00:08:23.757Z,822.31
2017-05-18T00:08:28.197Z,822.3
2017-05-18T00:08:32.625Z,822.34
2017-05-18T00:08:37.064Z,822.29
2017-05-18T00:08:41.491Z,822.31
2017-05-18T00:08:45.923Z,822.29
2017-05-18T00:08:50.353Z,822.32
2017-05-18T00:08:54.789Z,822.26
2017-05-18T00:08:59.114Z,822.32
2017-05-18T00:09:03.540Z,822.32
2017-05-18T00:09:07.974Z,822.3
2017-05-18T00:09:12.405Z,822.29
2017-05-18T00:09:16.598Z,822.29
2017-05-18T00:09:21.041Z,822.29
2017-05-18T00:09:25.231Z,822.32
2017-05-18T00:09:29.310Z,822.27
2017-05-18T00:09:33.512Z,822.28
2017-05-18T00:09:37.825Z,822.29
2017-05-18T00:09:42.308Z,822.27
2017-05-18T00:09:46.733Z,822.27
2017-05-18T00:09:51.165Z,822.3
2017-05-18T00:09:55.599Z,822.26
2017-05-18T00:10:00.048Z,822.2
2017-05-18T00:10:04.412Z,822.23
2017-05-18T00:10:08.721Z,822.24
2017-05-18T00:10:13.163Z,822.23
2017-05-18T00:10:17.247Z,822.2
2017-05-18T00:10:21.680Z,822.18
2017-05-18T00:10:25.877Z,822.23
2017-05-18T00:10:30.073Z,822.21
2017-05-18T00:10:34.386Z,822.21
2017-05-18T00:10:38.581Z,822.17
2017-05-18T00:10:42.889Z,822.21
2017-05-18T00:10:47.333Z,822.19
2017-05-18T00:10:51.758Z,822.19
2017-05-18T00:10:56.186Z,822.2
2017-05-18T00:11:00.619Z,822.2
2017-05-18T00:11:04.870Z,822.2
2017-05-18T00:11:09.187Z,822.22
2017-05-18T00:11:13.628Z,822.19
2017-05-18T00:11:18.053Z,822.2
2017-05-18T00:11:22.480Z,822.21
2017-05-18T00:11:26.796Z,822.17
2017-05-18T00:11:31.227Z,822.24
2017-05-18T00:11:35.542Z,822.17
2017-05-18T00:11:39.855Z,822.17
2017-05-18T00:11:44.281Z,822.17
2017-05-18T00:11:48.709Z,822.19
2017-05-18T00:11:53.139Z,822.15
2017-05-18T00:11:57.571Z,822.19
2017-05-18T00:12:01.893Z,822.19
2017-05-18T00:12:06.265Z,822.18
2017-05-18T00:12:10.458Z,822.17
2017-05-18T00:12:14.763Z,822.16
2017-05-18T00:12:19.192Z,822.16
2017-05-18T00:12:23.628Z,822.15
2017-05-18T00:12:28.065Z,822.1
2017-05-18T00:12:32.491Z,822.08
2017-05-18T00:12:36.933Z,822.1
2017-05-18T00:12:41.369Z,822.12
2017-05-18T00:12:45.800Z,822.12
2017-05-18T00:12:50.232Z,822.12
2017-05-18T00:12:54.436Z,822.13
2017-05-18T00:12:58.878Z,822.12
2017-05-18T00:13:03.315Z,822.13
2017-05-18T00:13:07.747Z,822.13
2017-05-18T00:13:12.063Z,822.15
2017-05-18T00:13:16.374Z,822.13
2017-05-18T00:13:20.807Z,822.05
2017-05-18T00:13:25.243Z,822.08
2017-05-18T00:13:29.570Z,822.13
2017-05-18T00:13:33.878Z,822.12
2017-05-18T00:13:38.311Z,822.09
2017-05-18T00:13:42.762Z,822.1
2017-05-18T00:13:47.200Z,822.11
2017-05-18T00:13:51.636Z,822.13
2017-05-18T00:13:56.328Z,822.06
2017-05-18T00:14:00.766Z,822.08
2017-05-18T00:14:05.196Z,822.08
2017-05-18T00:14:09.388Z,822.06
2017-05-18T00:14:13.711Z,822.11
2017-05-18T00:14:18.032Z,822.11
2017-05-18T00:14:22.471Z,822.11
2017-05-18T00:14:26.908Z,822.09
2017-05-18T00:14:31.152Z,822.11
2017-05-18T00:14:35.583Z,822.1
2017-05-18T00:14:40.012Z,822.09
2017-05-18T00:14:44.447Z,822.04
2017-05-18T00:14:48.645Z,822.11
2017-05-18T00:14:53.082Z,822.12
2017-05-18T00:14:57.284Z,822.11
2017-05-18T00:15:01.721Z,822.07
2017-05-18T00:15:06.170Z,822.11
2017-05-18T00:15:10.594Z,822.1
2017-05-18T00:15:14.670Z,822.1
2017-05-18T00:15:19.097Z,822.08
2017-05-18T00:15:23.548Z,822.11
2017-05-18T00:15:27.852Z,822.09
2017-05-18T00:15:32.291Z,822.1
2017-05-18T00:15:36.727Z,822.07
2017-05-18T00:15:41.212Z,822.07
2017-05-18T00:15:45.640Z,822.07
2017-05-18T00:15:49.962Z,822.07
2017-05-18T00:15:54.445Z,822.06
2017-05-18T00:15:58.755Z,822.07
2017-05-18T00:16:03.238Z,822.03
2017-05-18T00:16:07.553Z,822.02
2017-05-18T00:16:11.860Z,822.01
2017-05-18T00:16:16.175Z,822
2017-05-18T00:16:20.613Z,822.06
2017-05-18T00:16:24.927Z,822.05
2017-05-18T00:16:29.351Z,822.03
2017-05-18T00:16:33.776Z,822.04
2017-05-18T00:16:38.206Z,821.97
2017-05-18T00:16:42.648Z,821.99
2017-05-18T00:16:47.072Z,821.97
2017-05-18T00:16:51.505Z,822
2017-05-18T00:16:55.816Z,821.98
2017-05-18T00:17:00.253Z,822
2017-05-18T00:17:04.780Z,822
2017-05-18T00:17:09.091Z,822.01
2017-05-18T00:17:13.523Z,821.96
2017-05-18T00:17:17.842Z,821.92
2017-05-18T00:17:22.264Z,822
2017-05-18T00:17:26.702Z,821.99
2017-05-18T00:17:31.136Z,821.97
2017-05-18T00:17:35.638Z,822.01
2017-05-18T00:17:39.955Z,821.96
2017-05-18T00:17:44.399Z,821.97
2017-05-18T00:17:48.843Z,821.97
2017-05-18T00:17:53.273Z,821.93
2017-05-18T00:17:57.594Z,821.92
2017-05-18T00:18:02.328Z,821.95
2017-05-18T00:18:06.768Z,821.9
2017-05-18T00:18:11.080Z,821.91
2017-05-18T00:18:15.279Z,821.9
2017-05-18T00:18:19.707Z,821.9
2017-05-18T00:18:24.029Z,821.92
2017-05-18T00:18:28.468Z,821.89
2017-05-18T00:18:32.898Z,821.88
2017-05-18T00:18:37.328Z,821.87
2017-05-18T00:18:41.759Z,821.87
2017-05-18T00:18:46.201Z,821.85
2017-05-18T00:18:50.627Z,821.83
2017-05-18T00:18:55.057Z,821.83
2017-05-18T00:18:59.526Z,821.83
2017-05-18T00:19:04.087Z,821.75
2017-05-18T00:19:08.401Z,821.82
2017-05-18T00:19:12.715Z,821.78
2017-05-18T00:19:16.915Z,821.79
2017-05-18T00:19:21.235Z,821.78
2017-05-18T00:19:25.554Z,821.81
2017-05-18T00:19:29.990Z,821.77
2017-05-18T00:19:34.316Z,821.79
2017-05-18T00:19:38.630Z,821.78
2017-05-18T00:19:43.059Z,821.75
2017-05-18T00:19:47.364Z,821.75
2017-05-18T00:19:51.794Z,821.76
2017-05-18T00:19:56.232Z,821.74
2017-05-18T00:20:00.665Z,821.71
2017-05-18T00:20:05.151Z,821.74
2017-05-18T00:20:09.351Z,821.66
2017-05-18T00:20:13.655Z,821.67
2017-05-18T00:20:17.852Z,821.64
2017-05-18T00:20:22.285Z,821.66
2017-05-18T00:20:26.707Z,821.61
2017-05-18T00:20:31.021Z,821.64
2017-05-18T00:20:35.457Z,821.7
2017-05-18T00:20:39.885Z,821.68
2017-05-18T00:20:44.310Z,821.63
2017-05-18T00:20:48.737Z,821.66
2017-05-18T00:20:53.168Z,821.65
2017-05-18T00:20:57.538Z,821.68
2017-05-18T00:21:01.968Z,821.64
2017-05-18T00:21:06.396Z,821.63
2017-05-18T00:21:10.594Z,821.62
2017-05-18T00:21:15.019Z,821.62
2017-05-18T00:21:19.217Z,821.58
2017-05-18T00:21:23.653Z,821.57
2017-05-18T00:21:27.967Z,821.56
2017-05-18T00:21:32.394Z,821.59
2017-05-18T00:21:36.709Z,821.6
2017-05-18T00:21:41.142Z,821.6
2017-05-18T00:21:45.568Z,821.6
2017-05-18T00:21:50.006Z,821.55
2017-05-18T00:21:54.432Z,821.54
2017-05-18T00:21:58.507Z,821.54
2017-05-18T00:22:02.989Z,821.54
2017-05-18T00:22:07.301Z,821.54
2017-05-18T00:22:11.489Z,821.52
2017-05-18T00:22:15.685Z,821.52
2017-05-18T00:22:20.171Z,821.52
2017-05-18T00:22:24.595Z,821.5
2017-05-18T00:22:29.019Z,821.49
2017-05-18T00:22:33.448Z,821.51
2017-05-18T00:22:37.764Z,821.53
2017-05-18T00:22:42.189Z,821.48
2017-05-18T00:22:46.614Z,821.47
2017-05-18T00:22:51.040Z,821.49
2017-05-18T00:22:55.480Z,821.49
2017-05-18T00:22:59.937Z,821.44
2017-05-18T00:23:04.576Z,821.45
2017-05-18T00:23:09.015Z,821.4
2017-05-18T00:23:13.328Z,821.41
2017-05-18T00:23:17.652Z,821.47
2017-05-18T00:23:22.140Z,821.44
2017-05-18T00:23:26.566Z,821.43
2017-05-18T00:23:30.885Z,821.45
2017-05-18T00:23:35.138Z,821.4
2017-05-18T00:23:39.572Z,821.44
2017-05-18T00:23:44.009Z,821.41
2017-05-18T00:23:48.442Z,821.42
2017-05-18T00:23:52.870Z,821.39
2017-05-18T00:23:57.194Z,821.4
2017-05-18T00:24:01.762Z,821.39
2017-05-18T00:24:06.086Z,821.33
2017-05-18T00:24:10.411Z,821.4
2017-05-18T00:24:14.848Z,821.38
2017-05-18T00:24:18.932Z,821.41
2017-05-18T00:24:23.358Z,821.37
2017-05-18T00:24:27.787Z,821.38
2017-05-18T00:24:32.101Z,821.35
2017-05-18T00:24:36.418Z,821.35
2017-05-18T00:24:40.862Z,821.34
2017-05-18T00:24:45.297Z,821.35
2017-05-18T00:24:49.719Z,821.32
2017-05-18T00:24:54.157Z,821.32
2017-05-18T00:24:58.590Z,821.34
2017-05-18T00:25:03.033Z,821.32
2017-05-18T00:25:07.351Z,821.35
2017-05-18T00:25:11.543Z,821.32
2017-05-18T00:25:15.978Z,821.28
2017-05-18T00:25:20.466Z,821.29
2017-05-18T00:25:24.663Z,821.27
2017-05-18T00:25:29.090Z,821.26
2017-05-18T00:25:33.520Z,821.3
2017-05-18T00:25:37.993Z,821.31
2017-05-18T00:25:42.422Z,821.27
2017-05-18T00:25:46.868Z,821.26
2017-05-18T00:25:51.301Z,821.25
2017-05-18T00:25:55.726Z,821.23
2017-05-18T00:26:00.038Z,821.27
2017-05-18T00:26:04.508Z,821.25
2017-05-18T00:26:08.826Z,821.23
2017-05-18T00:26:13.311Z,821.27
2017-05-18T00:26:17.501Z,821.16
2017-05-18T00:26:21.934Z,821.24
2017-05-18T00:26:26.119Z,821.24
2017-05-18T00:26:30.311Z,821.24
2017-05-18T00:26:34.742Z,821.23
2017-05-18T00:26:39.180Z,821.24
2017-05-18T00:26:43.604Z,821.22
2017-05-18T00:26:48.036Z,821.23
2017-05-18T00:26:52.465Z,821.22
2017-05-18T00:26:56.774Z,821.2
2017-05-18T00:27:01.206Z,821.17
2017-05-18T00:27:06.003Z,821.19
2017-05-18T00:27:10.311Z,821.22
2017-05-18T00:27:14.742Z,821.2
2017-05-18T00:27:18.943Z,821.19
2017-05-18T00:27:23.381Z,821.15
2017-05-18T00:27:27.808Z,821.14
2017-05-18T00:27:32.237Z,821.17
2017-05-18T00:27:36.676Z,821.11
2017-05-18T00:27:41.179Z,821.16
2017-05-18T00:27:45.615Z,821.1
2017-05-18T00:27:50.047Z,821.12
2017-05-18T00:27:54.486Z,821.14
2017-05-18T00:27:58.924Z,821.16
2017-05-18T00:28:03.351Z,821.17
2017-05-18T00:28:07.538Z,821.14
2017-05-18T00:28:11.961Z,821.15
2017-05-18T00:28:16.395Z,821.12
2017-05-18T00:28:20.706Z,821.15
2017-05-18T00:28:25.140Z,821.13
2017-05-18T00:28:29.573Z,821.15
2017-05-18T00:28:34.009Z,821.14
2017-05-18T00:28:38.508Z,821.13
2017-05-18T00:28:42.941Z,821.12
2017-05-18T00:28:47.370Z,821.12
2017-05-18T00:28:51.803Z,821.12
2017-05-18T00:28:56.235Z,821.09
2017-05-18T00:29:00.664Z,821.1
2017-05-18T00:29:05.260Z,821.11
2017-05-18T00:29:09.699Z,821.11
2017-05-18T00:29:14.134Z,821.09
2017-05-18T00:29:18.332Z,821.06
2017-05-18T00:29:22.525Z,821.09
2017-05-18T00:29:26.968Z,821.07
2017-05-18T00:29:31.286Z,821.06
2017-05-18T00:29:35.713Z,821.08
2017-05-18T00:29:40.148Z,821.07
2017-05-18T00:29:44.579Z,821.09
2017-05-18T00:29:49.016Z,821.1
2017-05-18T00:29:53.447Z,821.07
2017-05-18T00:29:57.763Z,821.1
2017-05-18T00:30:02.194Z,821.06
2017-05-18T00:30:06.690Z,820.99
2017-05-18T00:30:10.881Z,821.08
2017-05-18T00:30:15.339Z,821.1
2017-05-18T00:30:19.652Z,821.06
2017-05-18T00:30:24.078Z,821.12
2017-05-18T00:30:28.509Z,821.09
2017-05-18T00:30:32.936Z,821.08
2017-05-18T00:30:37.364Z,821.09
2017-05-18T00:30:41.679Z,821.05
2017-05-18T00:30:46.116Z,821.06
2017-05-18T00:30:50.549Z,821.07
2017-05-18T00:30:54.980Z,821.05
2017-05-18T00:30:59.298Z,821.05
2017-05-18T00:31:04.091Z,821.02
2017-05-18T00:31:08.525Z,821.01
2017-05-18T00:31:12.957Z,821.07
2017-05-18T00:31:17.034Z,821.07
2017-05-18T00:31:21.469Z,821.09
2017-05-18T00:31:25.900Z,821.06
2017-05-18T00:31:30.090Z,821.04
2017-05-18T00:31:34.529Z,821.07
2017-05-18T00:31:38.963Z,821.03
2017-05-18T00:31:43.400Z,821.02
2017-05-18T00:31:47.835Z,821.02
2017-05-18T00:31:52.144Z,821.06
2017-05-18T00:31:56.458Z,821.06
2017-05-18T00:32:00.885Z,821.07
2017-05-18T00:32:05.326Z,821.04
2017-05-18T00:32:09.640Z,821.04
2017-05-18T00:32:14.079Z,821.03
2017-05-18T00:32:18.512Z,821.06
2017-05-18T00:32:22.822Z,821.04
2017-05-18T00:32:27.254Z,821.05
2017-05-18T00:32:31.684Z,821.03
2017-05-18T00:32:35.990Z,821.06
2017-05-18T00:32:40.318Z,821.07
2017-05-18T00:32:44.823Z,821.05
2017-05-18T00:32:49.257Z,821.04
2017-05-18T00:32:53.704Z,821.02
2017-05-18T00:32:58.141Z,821
2017-05-18T00:33:02.565Z,821.05
2017-05-18T00:33:06.990Z,821.03
2017-05-18T00:33:11.301Z,821.02
2017-05-18T00:33:15.619Z,821.04
2017-05-18T00:33:20.046Z,821.01
2017-05-18T00:33:24.362Z,820.98
2017-05-18T00:33:28.799Z,821.01
2017-05-18T00:33:33.248Z,821.04
2017-05-18T00:33:37.567Z,821.04
2017-05-18T00:33:42.000Z,821.01
2017-05-18T00:33:46.434Z,821.04
2017-05-18T00:33:50.890Z,821.01
2017-05-18T00:33:55.033Z,821.01
2017-05-18T00:33:59.481Z,820.98
2017-05-18T00:34:03.907Z,820.96
2017-05-18T00:34:08.337Z,821.01
2017-05-18T00:34:12.709Z,820.96
2017-05-18T00:34:17.025Z,820.99
2017-05-18T00:34:21.470Z,820.99
2017-05-18T00:34:25.843Z,820.99
2017-05-18T00:34:30.278Z,820.99
2017-05-18T00:34:34.720Z,820.98
2017-05-18T00:34:39.152Z,820.98
2017-05-18T00:34:43.579Z,820.98
2017-05-18T00:34:48.012Z,820.94
2017-05-18T00:34:52.316Z,820.88
2017-05-18T00:34:56.638Z,820.97
2017-05-18T00:35:00.963Z,820.96
2017-05-18T00:35:05.406Z,820.96
2017-05-18T00:35:09.839Z,820.95
2017-05-18T00:35:14.210Z,820.93
2017-05-18T00:35:18.634Z,820.89
2017-05-18T00:35:23.060Z,820.93
2017-05-18T00:35:27.490Z,820.94
2017-05-18T00:35:31.807Z,820.93
2017-05-18T00:35:36.235Z,820.96
2017-05-18T00:35:40.434Z,820.94
2017-05-18T00:35:44.868Z,820.9
2017-05-18T00:35:49.354Z,820.91
2017-05-18T00:35:53.780Z,820.91
2017-05-18T00:35:58.210Z,820.89
2017-05-18T00:36:02.704Z,820.9
2017-05-18T00:36:07.015Z,820.9
2017-05-18T00:36:11.439Z,820.9
2017-05-18T00:36:15.640Z,820.91
2017-05-18T00:36:20.083Z,820.88
2017-05-18T00:36:24.390Z,820.87
2017-05-18T00:36:28.824Z,820.89
2017-05-18T00:36:33.135Z,820.89
2017-05-18T00:36:37.573Z,820.86
2017-05-18T00:36:41.879Z,820.87
2017-05-18T00:36:46.309Z,820.89
2017-05-18T00:36:50.744Z,820.88
2017-05-18T00:36:55.169Z,820.89
2017-05-18T00:36:59.476Z,820.9
2017-05-18T00:37:03.886Z,820.89
2017-05-18T00:37:08.194Z,820.88
2017-05-18T00:37:12.619Z,820.89
2017-05-18T00:37:16.933Z,820.86
2017-05-18T00:37:21.358Z,820.86
2017-05-18T00:37:25.784Z,820.87
2017-05-18T00:37:30.092Z,820.83
2017-05-18T00:37:34.531Z,820.85
2017-05-18T00:37:38.850Z,820.87
2017-05-18T00:37:43.278Z,820.87
2017-05-18T00:37:47.773Z,820.88
2017-05-18T00:37:52.208Z,820.81
2017-05-18T00:37:56.540Z,820.81
2017-05-18T00:38:00.860Z,820.81
2017-05-18T00:38:05.298Z,820.81
2017-05-18T00:38:09.731Z,820.83
2017-05-18T00:38:14.158Z,820.84
2017-05-18T00:38:18.353Z,820.83
2017-05-18T00:38:22.791Z,820.82
2017-05-18T00:38:27.234Z,820.81
2017-05-18T00:38:31.550Z,820.82
2017-05-18T00:38:35.987Z,820.83
2017-05-18T00:38:40.300Z,820.83
2017-05-18T00:38:44.726Z,820.86
2017-05-18T00:38:49.061Z,820.81
2017-05-18T00:38:53.504Z,820.78
2017-05-18T00:38:57.819Z,820.78
2017-05-18T00:39:02.554Z,820.81
2017-05-18T00:39:06.993Z,820.81
2017-05-18T00:39:11.424Z,820.79
2017-05-18T00:39:15.736Z,820.81
2017-05-18T00:39:20.047Z,820.8
2017-05-18T00:39:24.126Z,820.79
2017-05-18T00:39:28.559Z,820.78
2017-05-18T00:39:32.986Z,820.78
2017-05-18T00:39:37.293Z,820.78
2017-05-18T00:39:41.724Z,820.79
2017-05-18T00:39:46.034Z,820.78
2017-05-18T00:39:50.466Z,820.76
2017-05-18T00:39:54.781Z,820.78
2017-05-18T00:39:59.142Z,820.75
2017-05-18T00:40:03.834Z,820.75
2017-05-18T00:40:08.291Z,820.78
2017-05-18T00:40:12.722Z,820.78
2017-05-18T00:40:16.911Z,820.78
2017-05-18T00:40:21.229Z,820.78
2017-05-18T00:40:25.545Z,820.73
2017-05-18T00:40:29.973Z,820.71
2017-05-18T00:40:34.404Z,820.75
2017-05-18T00:40:38.839Z,820.71
2017-05-18T00:40:43.267Z,820.73
2017-05-18T00:40:47.693Z,820.71
2017-05-18T00:40:52.122Z,820.71
2017-05-18T00:40:56.556Z,820.74
2017-05-18T00:41:00.989Z,820.72
2017-05-18T00:41:05.415Z,820.71
2017-05-18T00:41:09.842Z,820.68
2017-05-18T00:41:14.269Z,820.7
2017-05-18T00:41:18.579Z,820.69
2017-05-18T00:41:23.010Z,820.68
2017-05-18T00:41:27.439Z,820.66
2017-05-18T00:41:31.752Z,820.67
2017-05-18T00:41:36.188Z,820.66
2017-05-18T00:41:40.612Z,820.68
2017-05-18T00:41:45.039Z,820.63
2017-05-18T00:41:49.468Z,820.66
2017-05-18T00:41:53.900Z,820.66
2017-05-18T00:41:58.322Z,820.61
2017-05-18T00:42:02.749Z,820.66
2017-05-18T00:42:07.069Z,820.65
2017-05-18T00:42:11.373Z,820.68
2017-05-18T00:42:15.447Z,820.59
2017-05-18T00:42:19.772Z,820.6
2017-05-18T00:42:24.084Z,820.61
2017-05-18T00:42:28.519Z,820.58
2017-05-18T00:42:32.838Z,820.55
2017-05-18T00:42:37.320Z,820.55
2017-05-18T00:42:41.753Z,820.63
2017-05-18T00:42:46.179Z,820.62
2017-05-18T00:42:50.617Z,820.59
2017-05-18T00:42:55.060Z,820.55
2017-05-18T00:42:59.377Z,820.58
2017-05-18T00:43:03.830Z,820.59
2017-05-18T00:43:08.212Z,820.57
2017-05-18T00:43:12.656Z,820.57
2017-05-18T00:43:16.966Z,820.55
2017-05-18T00:43:21.401Z,820.57
2017-05-18T00:43:25.715Z,820.55
2017-05-18T00:43:30.146Z,820.54
2017-05-18T00:43:34.593Z,820.56
2017-05-18T00:43:39.022Z,820.55
2017-05-18T00:43:43.452Z,820.53
2017-05-18T00:43:47.883Z,820.53
2017-05-18T00:43:52.324Z,820.48
2017-05-18T00:43:56.525Z,820.47
2017-05-18T00:44:01.088Z,820.47
2017-05-18T00:44:05.523Z,820.48
2017-05-18T00:44:09.959Z,820.52
2017-05-18T00:44:14.151Z,820.47
2017-05-18T00:44:18.576Z,820.49
2017-05-18T00:44:22.891Z,820.54
2017-05-18T00:44:27.283Z,820.48
2017-05-18T00:44:31.712Z,820.54
2017-05-18T00:44:36.147Z,820.49
2017-05-18T00:44:40.579Z,820.49
2017-05-18T00:44:45.030Z,820.51
2017-05-18T00:44:49.457Z,820.47
2017-05-18T00:44:53.888Z,820.47
2017-05-18T00:44:58.379Z,820.48
2017-05-18T00:45:02.700Z,820.47
2017-05-18T00:45:07.014Z,820.43
2017-05-18T00:45:11.443Z,820.46
2017-05-18T00:45:15.766Z,820.45
2017-05-18T00:45:20.193Z,820.44
2017-05-18T00:45:24.497Z,820.41
2017-05-18T00:45:28.929Z,820.45
2017-05-18T00:45:33.355Z,820.46
2017-05-18T00:45:37.795Z,820.45
2017-05-18T00:45:42.224Z,820.43
2017-05-18T00:45:46.308Z,820.42
2017-05-18T00:45:50.748Z,820.44
2017-05-18T00:45:55.058Z,820.4
2017-05-18T00:45:59.502Z,820.4
2017-05-18T00:46:03.935Z,820.4
2017-05-18T00:46:08.248Z,820.39
2017-05-18T00:46:12.739Z,820.36
2017-05-18T00:46:17.109Z,820.38
2017-05-18T00:46:21.541Z,820.31
2017-05-18T00:46:25.966Z,820.34
2017-05-18T00:46:30.275Z,820.36
2017-05-18T00:46:34.702Z,820.34
2017-05-18T00:46:39.069Z,820.34
2017-05-18T00:46:43.267Z,820.33
2017-05-18T00:46:47.696Z,820.34
2017-05-18T00:46:52.127Z,820.35
2017-05-18T00:46:56.561Z,820.34
2017-05-18T00:47:00.875Z,820.34
2017-05-18T00:47:05.487Z,820.32
2017-05-18T00:47:09.922Z,820.31
2017-05-18T00:47:14.236Z,820.31
2017-05-18T00:47:18.661Z,820.29
2017-05-18T00:47:23.085Z,820.28
2017-05-18T00:47:27.396Z,820.29
2017-05-18T00:47:31.829Z,820.28
2017-05-18T00:47:36.267Z,820.25
2017-05-18T00:47:40.704Z,820.25
2017-05-18T00:47:45.149Z,820.27
2017-05-18T00:47:49.592Z,820.24
2017-05-18T00:47:54.027Z,820.24
2017-05-18T00:47:58.467Z,820.23
2017-05-18T00:48:03.044Z,820.25
2017-05-18T00:48:07.119Z,820.22
2017-05-18T00:48:11.593Z,820.23
2017-05-18T00:48:15.903Z,820.23
2017-05-18T00:48:20.221Z,820.21
2017-05-18T00:48:24.304Z,820.18
2017-05-18T00:48:28.616Z,820.2
2017-05-18T00:48:32.937Z,820.19
2017-05-18T00:48:37.378Z,820.19
2017-05-18T00:48:41.702Z,820.2
2017-05-18T00:48:46.128Z,820.18
2017-05-18T00:48:50.559Z,820.18
2017-05-18T00:48:54.989Z,820.2
2017-05-18T00:48:59.370Z,820.16
2017-05-18T00:49:04.064Z,820.15
2017-05-18T00:49:08.380Z,820.16
2017-05-18T00:49:12.720Z,820.13
2017-05-18T00:49:16.911Z,820.16
2017-05-18T00:49:21.238Z,820.1
2017-05-18T00:49:25.678Z,820.12
2017-05-18T00:49:30.109Z,820.12
2017-05-18T00:49:34.538Z,820.08
2017-05-18T00:49:39.028Z,820.11
2017-05-18T00:49:43.466Z,820.11
2017-05-18T00:49:47.779Z,820.09
2017-05-18T00:49:52.219Z,820.11
2017-05-18T00:49:56.650Z,820.09
2017-05-18T00:50:01.092Z,820.06
2017-05-18T00:50:05.540Z,820.05
2017-05-18T00:50:09.734Z,820.07
2017-05-18T00:50:13.921Z,820.05
2017-05-18T00:50:18.233Z,820.07
2017-05-18T00:50:22.713Z,820.03
2017-05-18T00:50:27.152Z,820.02
2017-05-18T00:50:31.467Z,820.01
2017-05-18T00:50:35.892Z,820.03
2017-05-18T00:50:40.093Z,820.02
2017-05-18T00:50:44.523Z,820
2017-05-18T00:50:48.948Z,820.01
2017-05-18T00:50:53.384Z,820.04
2017-05-18T00:50:57.695Z,820.01
2017-05-18T00:51:02.527Z,819.97
2017-05-18T00:51:06.843Z,819.97
2017-05-18T00:51:11.153Z,819.96
2017-05-18T00:51:15.472Z,819.97
2017-05-18T00:51:19.903Z,820
2017-05-18T00:51:24.212Z,819.98
2017-05-18T00:51:28.692Z,819.94
2017-05-18T00:51:33.002Z,819.95
2017-05-18T00:51:37.429Z,819.91
2017-05-18T00:51:41.866Z,819.94
2017-05-18T00:51:46.292Z,819.91
2017-05-18T00:51:50.724Z,819.91
2017-05-18T00:51:55.154Z,819.93
2017-05-18T00:51:59.579Z,819.87
2017-05-18T00:52:04.022Z,819.91
2017-05-18T00:52:08.351Z,819.92
2017-05-18T00:52:12.717Z,819.9
2017-05-18T00:52:17.031Z,819.91
2017-05-18T00:52:21.476Z,819.89
2017-05-18T00:52:25.910Z,819.89
2017-05-18T00:52:30.333Z,819.83
2017-05-18T00:52:34.644Z,819.88
2017-05-18T00:52:39.092Z,819.81
2017-05-18T00:52:43.522Z,819.88
2017-05-18T00:52:47.954Z,819.84
2017-05-18T00:52:52.266Z,819.83
2017-05-18T00:52:56.468Z,819.85
2017-05-18T00:53:00.954Z,819.84
2017-05-18T00:53:05.681Z,819.84
2017-05-18T00:53:09.994Z,819.85
2017-05-18T00:53:14.361Z,819.85
2017-05-18T00:53:18.670Z,819.82
2017-05-18T00:53:23.102Z,819.82
2017-05-18T00:53:27.541Z,819.81
2017-05-18T00:53:31.852Z,819.79
2017-05-18T00:53:36.179Z,819.79
2017-05-18T00:53:40.556Z,819.78
2017-05-18T00:53:44.866Z,819.82
2017-05-18T00:53:49.301Z,819.8
2017-05-18T00:53:53.620Z,819.75
2017-05-18T00:53:58.046Z,819.77
2017-05-18T00:54:02.521Z,819.77
2017-05-18T00:54:06.957Z,819.77
2017-05-18T00:54:11.275Z,819.77
2017-05-18T00:54:15.466Z,819.75
2017-05-18T00:54:19.897Z,819.75
2017-05-18T00:54:24.324Z,819.75
2017-05-18T00:54:28.749Z,819.75
2017-05-18T00:54:33.061Z,819.75
2017-05-18T00:54:37.491Z,819.75
2017-05-18T00:54:41.927Z,819.77
2017-05-18T00:54:46.247Z,819.75
2017-05-18T00:54:50.680Z,819.77
2017-05-18T00:54:55.112Z,819.79
2017-05-18T00:54:59.563Z,819.75